Time;durP1;ratioP1;P1;durP2;ratioP2;P2;SDS_P1;SDS_P2;PMS_P1;PMS_P2;Temp;Humidity;BMP_temperature;BMP_pressure;BME280_temperature;BME280_humidity;BME280_pressure;Samples;Min_cycle;Max_cycle;Signal;HPM_P1;HPM_P2
2023/06/22 00:03:24;;;;;;;14.45;6.95;;;;;;;22.23;100.00;94927.28;5095700;28;20031;-84
2023/06/22 00:08:34;;;;;;;17.67;7.15;;;;;;;22.37;100.00;94907.53;5094617;28;20035;-84
2023/06/22 00:11:00;;;;;;;16.23;6.90;;;;;;;22.25;100.00;94913.63;5094314;28;20032;-84
2023/06/22 00:13:25;;;;;;;12.18;6.80;;;;;;;22.36;100.00;94914.00;5094405;28;20348;-84
2023/06/22 00:15:51;;;;;;;15.75;6.55;;;;;;;22.35;100.00;94915.88;5094423;28;20031;-84
2023/06/22 00:18:16;;;;;;;13.32;6.95;;;;;;;22.46;100.00;94908.25;5090417;28;20028;-84
2023/06/22 00:20:42;;;;;;;20.77;7.38;;;;;;;22.43;100.00;94909.69;5083361;28;20048;-84
2023/06/22 00:25:51;;;;;;;16.65;6.78;;;;;;;22.30;100.00;94906.19;5073841;28;20035;-84
2023/06/22 00:28:17;;;;;;;21.50;7.10;;;;;;;22.17;100.00;94908.03;5075204;28;20488;-84
2023/06/22 00:30:42;;;;;;;12.35;6.47;;;;;;;22.17;100.00;94894.69;5073892;28;20043;-84
2023/06/22 00:33:08;;;;;;;18.77;6.97;;;;;;;21.94;100.00;94890.81;5074071;28;20082;-83
2023/06/22 00:35:33;;;;;;;15.32;6.43;;;;;;;22.07;100.00;94889.00;5056883;28;20029;-84
2023/06/22 00:38:00;;;;;;;14.30;6.80;;;;;;;22.18;100.00;94888.25;5095384;28;20383;-84
2023/06/22 00:40:27;;;;;;;20.13;6.63;;;;;;;22.17;100.00;94892.03;5078644;28;20433;-84
2023/06/22 00:43:11;;;;;;;22.20;7.63;;;;;;;21.67;100.00;94882.25;5080555;28;20032;-84
2023/06/22 00:45:38;;;;;;;14.10;6.25;;;;;;;21.94;100.00;94893.47;5077935;28;20025;-84
2023/06/22 00:48:04;;;;;;;19.58;6.32;;;;;;;21.74;100.00;94885.19;5086694;28;20028;-84
2023/06/22 00:53:18;;;;;;;14.10;6.40;;;;;;;21.96;100.00;94876.06;5091778;28;20526;-84
2023/06/22 00:55:46;;;;;;;13.20;6.38;;;;;;;22.08;100.00;94885.97;5083619;28;20059;-84
2023/06/22 00:58:12;;;;;;;12.70;6.20;;;;;;;22.14;100.00;94886.56;5082906;28;20024;-84
2023/06/22 01:00:39;;;;;;;14.45;6.38;;;;;;;22.05;100.00;94878.63;5099317;28;20020;-84
2023/06/22 01:03:08;;;;;;;12.13;6.82;;;;;;;22.00;100.00;94871.59;5099285;28;20046;-84
2023/06/22 01:05:35;;;;;;;12.73;5.88;;;;;;;21.75;100.00;94878.72;5098900;28;20020;-84
2023/06/22 01:08:19;;;;;;;15.95;6.40;;;;;;;21.84;100.00;94876.78;5098977;28;20020;-84
2023/06/22 01:11:08;;;;;;;15.77;6.25;;;;;;;21.53;100.00;94880.59;5088971;28;20054;-84
2023/06/22 01:13:50;;;;;;;14.25;5.82;;;;;;;21.80;100.00;94877.75;5097709;28;20058;-84
2023/06/22 01:16:39;;;;;;;15.25;6.03;;;;;;;21.71;100.00;94872.50;5097395;28;20028;-84
2023/06/22 01:19:43;;;;;;;15.70;5.78;;;;;;;21.44;100.00;94879.88;5097192;28;20046;-84
2023/06/22 01:22:29;;;;;;;20.58;6.15;;;;;;;21.67;100.00;94883.03;5097508;28;20020;-84
2023/06/22 01:27:47;;;;;;;22.92;5.78;;;;;;;22.02;100.00;94871.28;5097521;28;20157;-82
2023/06/22 01:30:14;;;;;;;12.68;6.15;;;;;;;22.16;100.00;94877.13;5098469;28;20445;-82
2023/06/22 01:32:40;;;;;;;18.17;6.03;;;;;;;22.27;100.00;94877.47;5097319;28;20024;-82
2023/06/22 01:35:07;;;;;;;19.10;6.45;;;;;;;22.07;100.00;94879.09;5096790;28;20085;-82
2023/06/22 01:37:34;;;;;;;26.38;6.28;;;;;;;21.53;100.00;94867.28;5097258;28;20033;-82
2023/06/22 01:40:18;;;;;;;17.30;6.85;;;;;;;21.29;100.00;94879.34;5097091;28;20020;-82
2023/06/22 01:42:44;;;;;;;12.63;5.90;;;;;;;21.49;100.00;94886.91;5097024;28;20032;-82
2023/06/22 01:45:11;;;;;;;15.43;5.85;;;;;;;21.72;100.00;94879.41;5096773;28;20038;-82
2023/06/22 01:47:37;;;;;;;19.10;6.30;;;;;;;22.05;100.00;94883.97;5096908;28;20031;-82
2023/06/22 01:50:03;;;;;;;13.70;6.03;;;;;;;22.26;100.00;94878.59;5096800;28;20043;-82
2023/06/22 01:52:47;;;;;;;13.00;6.05;;;;;;;22.43;100.00;94885.66;5096844;28;20028;-82
2023/06/22 01:55:12;;;;;;;17.83;7.28;;;;;;;22.46;100.00;94892.22;5096752;28;20024;-82
2023/06/22 01:57:38;;;;;;;14.15;6.28;;;;;;;22.59;100.00;94890.38;5098030;28;20038;-82
2023/06/22 02:00:07;;;;;;;16.67;6.60;;;;;;;22.78;100.00;94889.06;5080083;28;20024;-82
2023/06/22 02:02:55;;;;;;;22.13;7.22;;;;;;;22.66;100.00;94890.59;5096775;28;20024;-82
2023/06/22 02:05:42;;;;;;;16.05;6.80;;;;;;;22.73;100.00;94892.72;5097453;28;20336;-82
2023/06/22 02:08:10;;;;;;;15.93;6.88;;;;;;;22.93;100.00;94887.63;5097707;28;20024;-82
2023/06/22 02:10:37;;;;;;;15.77;6.22;;;;;;;22.84;100.00;94891.19;5096617;28;20051;-82
2023/06/22 02:13:06;;;;;;;15.75;6.97;;;;;;;22.84;100.00;94890.41;5096583;28;20024;-82
2023/06/22 02:15:32;;;;;;;12.25;6.80;;;;;;;22.74;100.00;94900.41;5096053;28;20035;-82
2023/06/22 02:18:16;;;;;;;26.77;6.40;;;;;;;22.80;100.00;94905.53;5097690;28;20035;-82
2023/06/22 02:20:42;;;;;;;17.80;6.60;;;;;;;22.72;100.00;94902.63;5096309;28;20076;-82
2023/06/22 02:23:07;;;;;;;15.52;6.07;;;;;;;22.80;100.00;94900.19;5096386;28;20028;-82
2023/06/22 02:25:33;;;;;;;21.85;6.82;;;;;;;22.42;100.00;94904.66;5095885;28;20086;-82
2023/06/22 02:28:17;;;;;;;16.15;6.25;;;;;;;22.46;100.00;94901.00;5097031;28;20063;-82
2023/06/22 02:30:43;;;;;;;16.13;6.25;;;;;;;22.33;100.00;94903.97;5097431;28;20498;-82
2023/06/22 02:33:27;;;;;;;12.43;6.28;;;;;;;22.42;100.00;94905.44;5097526;28;20020;-82
2023/06/22 02:35:52;;;;;;;20.40;7.50;;;;;;;22.23;100.00;94910.47;5098267;28;20114;-82
2023/06/22 02:38:37;;;;;;;20.77;6.70;;;;;;;21.78;100.00;94907.41;5098510;28;20464;-82
2023/06/22 02:41:02;;;;;;;15.75;6.40;;;;;;;21.84;100.00;94900.00;5094326;28;20017;-82
2023/06/22 02:46:13;;;;;;;15.07;6.57;;;;;;;21.70;100.00;94900.28;5097357;28;20105;-82
2023/06/22 02:51:25;;;;;;;15.73;6.63;;;;;;;21.32;100.00;94904.56;5097204;28;20031;-82
2023/06/22 02:57:04;;;;;;;22.67;7.10;;;;;;;21.19;100.00;94917.81;5087456;28;20341;-82
2023/06/22 02:59:30;;;;;;;16.55;6.00;;;;;;;21.24;100.00;94916.84;5098086;28;20081;-82
2023/06/22 03:01:55;;;;;;;18.38;7.18;;;;;;;21.31;100.00;94922.44;5096722;28;20055;-82
2023/06/22 03:04:21;;;;;;;15.38;6.80;;;;;;;21.01;100.00;94916.31;5097018;28;20024;-82
2023/06/22 03:06:50;;;;;;;15.00;6.18;;;;;;;21.27;100.00;94918.06;5096798;28;20077;-82
2023/06/22 03:09:16;;;;;;;12.25;6.20;;;;;;;21.35;100.00;94908.47;5096708;28;20028;-82
2023/06/22 03:11:42;;;;;;;13.50;6.68;;;;;;;21.38;100.00;94908.59;5096519;28;20058;-82
2023/06/22 03:14:08;;;;;;;17.17;6.88;;;;;;;21.42;100.00;94908.75;5096634;28;20023;-82
2023/06/22 03:19:36;;;;;;;12.48;6.47;;;;;;;21.32;100.00;94910.66;5096470;28;20089;-82
2023/06/22 03:22:20;;;;;;;17.58;6.78;;;;;;;21.49;100.00;94911.66;5096429;28;20034;-82
2023/06/22 03:24:46;;;;;;;14.98;6.50;;;;;;;21.21;100.00;94914.03;5097289;28;20035;-82
2023/06/22 03:27:11;;;;;;;18.70;6.72;;;;;;;20.95;100.00;94918.41;5096333;28;20031;-82
2023/06/22 03:29:36;;;;;;;15.50;6.85;;;;;;;20.61;100.00;94925.34;5079349;28;20081;-82
2023/06/22 03:32:04;;;;;;;17.75;6.18;;;;;;;20.64;100.00;94924.72;5096316;28;20127;-82
2023/06/22 03:34:49;;;;;;;20.00;6.85;;;;;;;20.45;100.00;94914.47;5096298;28;20024;-82
2023/06/22 03:37:14;;;;;;;16.98;7.97;;;;;;;20.34;100.00;94916.66;5096318;28;20122;-82
2023/06/22 03:39:41;;;;;;;17.63;6.75;;;;;;;20.69;100.00;94921.91;5096286;28;20421;-82
2023/06/22 03:44:50;;;;;;;12.07;6.88;;;;;;;20.83;100.00;94920.94;5095888;28;20039;-82
2023/06/22 03:47:34;;;;;;;25.20;8.10;;;;;;;20.62;100.00;94929.59;5096033;28;20407;-82
2023/06/22 03:50:00;;;;;;;16.08;7.38;;;;;;;20.65;100.00;94920.94;5095961;28;20036;-82
2023/06/22 03:52:25;;;;;;;17.90;6.78;;;;;;;20.74;100.00;94923.63;5091602;28;20036;-82
2023/06/22 03:57:56;;;;;;;18.50;6.43;;;;;;;21.17;100.00;94922.69;5088518;28;20027;-82
2023/06/22 04:00:22;;;;;;;21.60;7.97;;;;;;;21.06;100.00;94924.13;5095880;28;20020;-82
2023/06/22 04:02:48;;;;;;;23.65;7.18;;;;;;;20.84;100.00;94923.28;5095904;28;20050;-82
2023/06/22 04:05:14;;;;;;;18.08;7.03;;;;;;;21.16;100.00;94920.31;5096574;28;20028;-82
2023/06/22 04:07:58;;;;;;;19.67;7.30;;;;;;;21.15;100.00;94913.44;5079134;28;20035;-82
2023/06/22 04:10:23;;;;;;;21.45;7.38;;;;;;;21.27;100.00;94916.19;5095956;28;20036;-82
2023/06/22 04:12:49;;;;;;;13.38;6.63;;;;;;;21.22;100.00;94916.38;5096978;28;20085;-82
2023/06/22 04:17:58;;;;;;;13.55;6.20;;;;;;;21.68;100.00;94921.16;5096526;28;20055;-82
2023/06/22 04:23:07;;;;;;;18.85;7.20;;;;;;;21.66;100.00;94926.81;5095712;28;20039;-82
2023/06/22 04:28:17;;;;;;;17.25;6.70;;;;;;;21.86;100.00;94927.13;5095804;28;20035;-82
2023/06/22 04:30:46;;;;;;;10.90;5.43;;;;;;;22.09;100.00;94924.13;5096715;28;20376;-82
2023/06/22 04:33:15;;;;;;;13.50;6.35;;;;;;;22.38;100.00;94922.44;5096674;28;20030;-82
2023/06/22 04:35:41;;;;;;;14.50;5.78;;;;;;;22.61;100.00;94922.88;5078828;28;20336;-82
2023/06/22 04:40:51;;;;;;;14.50;5.65;;;;;;;22.31;100.00;94923.78;5095726;28;20199;-82
2023/06/22 04:43:16;;;;;;;10.85;6.05;;;;;;;22.79;100.00;94917.31;5093391;28;20036;-82
2023/06/22 04:45:42;;;;;;;23.65;6.65;;;;;;;22.67;100.00;94916.22;5078359;28;20340;-82
2023/06/22 04:48:32;;;;;;;13.75;6.00;;;;;;;23.12;100.00;94913.81;5078776;28;20127;-82
2023/06/22 04:53:43;;;;;;;11.10;6.07;;;;;;;23.21;100.00;94917.13;5095526;28;20129;-83
2023/06/22 04:56:08;;;;;;;10.90;5.78;;;;;;;23.25;100.00;94907.34;5078609;28;20032;-82
2023/06/22 04:58:56;;;;;;;14.32;6.50;;;;;;;22.46;100.00;94921.59;5078854;28;20028;-83
2023/06/22 05:01:40;;;;;;;19.33;7.35;;;;;;;22.13;100.00;94919.69;5079163;28;20086;-83
2023/06/22 05:04:06;;;;;;;20.50;7.40;;;;;;;22.11;100.00;94912.03;5096464;28;20088;-83
2023/06/22 05:06:50;;;;;;;11.77;6.22;;;;;;;22.22;100.00;94920.41;5094928;28;20028;-83
2023/06/22 05:09:17;;;;;;;17.73;7.15;;;;;;;23.01;100.00;94914.25;5093707;28;20039;-82
2023/06/22 05:11:42;;;;;;;13.23;6.70;;;;;;;22.60;100.00;94915.97;5093604;28;20036;-82
2023/06/22 05:16:52;;;;;;;25.55;9.20;;;;;;;23.29;100.00;94915.47;5094516;28;20039;-83
2023/06/22 05:22:01;;;;;;;215.70;48.72;;;;;;;24.01;100.00;94916.78;5095289;28;20582;-82
2023/06/22 05:24:27;;;;;;;42.83;11.82;;;;;;;23.53;100.00;94920.03;5094922;28;20115;-82
2023/06/22 05:40:01;;;;;;;14.57;7.30;;;;;;;23.78;100.00;94919.97;5197421;27;20465;-82
2023/06/22 05:42:45;;;;;;;16.20;7.55;;;;;;;23.94;100.00;94914.69;5158136;27;20447;-83
2023/06/22 05:45:11;;;;;;;13.35;6.40;;;;;;;24.47;100.00;94921.06;5176571;27;20101;-83
2023/06/22 05:50:20;;;;;;;14.88;6.50;;;;;;;24.78;100.00;94919.56;5160777;27;20079;-83
2023/06/22 05:52:45;;;;;;;12.70;6.80;;;;;;;25.05;100.00;94919.84;5157931;27;20372;-83
2023/06/22 05:55:11;;;;;;;12.52;7.05;;;;;;;24.20;100.00;94926.91;5140679;27;20029;-83
2023/06/22 05:57:36;;;;;;;17.67;7.25;;;;;;;23.61;100.00;94922.91;5157760;27;20053;-83
2023/06/22 06:03:05;;;;;;;13.15;7.20;;;;;;;23.18;100.00;94931.16;5160538;27;20033;-83
2023/06/22 06:05:31;;;;;;;20.45;7.15;;;;;;;23.32;100.00;94922.84;5140223;27;20109;-83
2023/06/22 06:07:57;;;;;;;17.70;6.55;;;;;;;23.88;100.00;94928.66;5140541;27;20014;-83
2023/06/22 06:10:23;;;;;;;10.40;6.38;;;;;;;23.88;100.00;94924.06;5140528;27;20346;-83
2023/06/22 06:12:48;;;;;;;14.05;6.20;;;;;;;24.45;100.00;94934.03;5157519;27;20026;-83
2023/06/22 06:17:58;;;;;;;11.30;5.78;;;;;;;23.90;100.00;94931.75;5175946;27;20034;-83
2023/06/22 06:20:27;;;;;;;15.38;6.15;;;;;;;24.34;100.00;94929.16;5139821;27;20030;-83
2023/06/22 06:22:53;;;;;;;9.95;6.63;;;;;;;24.71;100.00;94934.34;5157581;27;20022;-83
2023/06/22 06:25:20;;;;;;;16.00;6.38;;;;;;;24.39;100.00;94928.94;5157122;27;20105;-83
2023/06/22 06:28:04;;;;;;;14.55;6.18;;;;;;;24.87;100.00;94924.75;5140272;27;20014;-83
2023/06/22 06:33:15;;;;;;;163.95;35.38;;;;;;;24.69;100.00;94928.53;5159942;27;20045;-83
2023/06/22 06:35:40;;;;;;;13.48;6.63;;;;;;;25.11;100.00;94929.94;5156925;27;20033;-83
2023/06/22 06:40:50;;;;;;;17.48;5.90;;;;;;;25.49;100.00;94929.69;5175627;27;20152;-83
2023/06/22 06:43:34;;;;;;;17.60;6.65;;;;;;;25.47;100.00;94924.63;5157151;27;20439;-83
2023/06/22 06:45:59;;;;;;;13.07;6.28;;;;;;;25.82;100.00;94929.25;5156930;27;20027;-83
2023/06/22 06:48:25;;;;;;;11.25;5.65;;;;;;;25.75;100.00;94926.41;5156844;27;20023;-83
2023/06/22 06:51:09;;;;;;;18.15;6.72;;;;;;;25.53;100.00;94922.47;5142897;27;20026;-83
2023/06/22 06:53:53;;;;;;;14.95;5.90;;;;;;;24.88;100.00;94924.44;5157500;27;20023;-83
2023/06/22 06:56:18;;;;;;;10.07;5.15;;;;;;;24.59;100.00;94920.22;5155677;27;20023;-83
2023/06/22 06:58:44;;;;;;;13.55;6.40;;;;;;;24.44;100.00;94919.84;5105229;27;20019;-83
2023/06/22 07:01:33;;;;;;;17.20;6.95;;;;;;;24.00;100.00;94907.97;5105380;27;20050;-83
2023/06/22 07:04:17;;;;;;;21.50;7.10;;;;;;;24.11;100.00;94910.97;5122215;27;20088;-83
2023/06/22 07:09:26;;;;;;;13.07;5.97;;;;;;;24.56;100.00;94908.31;5124718;27;20107;-83
2023/06/22 07:11:52;;;;;;;17.33;6.22;;;;;;;25.05;100.00;94899.19;5121898;27;20114;-83
2023/06/22 07:14:36;;;;;;;12.93;5.75;;;;;;;25.37;100.00;94896.44;5121905;27;20027;-83
2023/06/22 07:17:20;;;;;;;15.75;6.25;;;;;;;25.64;100.00;94906.59;5122083;27;20046;-83
2023/06/22 07:19:45;;;;;;;20.88;6.32;;;;;;;25.89;100.00;94901.75;5121772;27;20151;-83
2023/06/22 07:22:11;;;;;;;11.68;6.22;;;;;;;26.11;100.00;94902.97;5121767;27;20031;-83
2023/06/22 07:27:21;;;;;;;20.95;10.77;;;;;;;25.98;100.00;94906.94;5124513;27;20094;-84
2023/06/22 07:29:46;;;;;;;14.90;7.47;;;;;;;26.44;100.00;94900.88;5121595;27;20381;-83
2023/06/22 07:32:12;;;;;;;11.02;6.00;;;;;;;26.74;100.00;94902.94;5122163;27;20030;-83
2023/06/22 07:34:38;;;;;;;17.23;6.30;;;;;;;27.03;100.00;94900.72;5121307;27;20030;-83
2023/06/22 07:37:04;;;;;;;22.48;6.75;;;;;;;26.94;100.00;94892.91;5139838;27;20045;-83
2023/06/22 07:39:30;;;;;;;16.00;6.72;;;;;;;27.29;100.00;94895.75;5104268;27;20037;-83
2023/06/22 07:41:55;;;;;;;16.65;6.50;;;;;;;27.32;100.00;94903.09;5139730;27;20031;-83
2023/06/22 07:44:21;;;;;;;20.77;6.82;;;;;;;26.83;100.00;94891.97;5121253;27;20031;-83
2023/06/22 07:46:46;;;;;;;13.95;6.13;;;;;;;27.45;96.96;94892.88;5121320;27;20108;-83
2023/06/22 07:49:31;;;;;;;14.93;6.25;;;;;;;27.11;100.00;94880.09;5137254;27;20033;-83
2023/06/22 07:51:56;;;;;;;14.70;5.60;;;;;;;27.38;100.00;94886.28;5139460;27;20489;-83
2023/06/22 07:54:22;;;;;;;13.50;6.28;;;;;;;26.89;100.00;94881.69;5139419;27;20035;-83
2023/06/22 07:56:47;;;;;;;17.90;5.85;;;;;;;27.26;100.00;94891.06;5139382;27;20023;-84
2023/06/22 07:59:31;;;;;;;13.77;5.90;;;;;;;27.55;100.00;94875.38;5120921;27;20102;-83
2023/06/22 08:01:57;;;;;;;14.85;5.32;;;;;;;27.71;100.00;94873.28;5119954;27;20031;-83
2023/06/22 08:04:22;;;;;;;13.18;6.38;;;;;;;27.26;100.00;94877.63;5121151;27;20027;-83
2023/06/22 08:06:48;;;;;;;15.90;5.35;;;;;;;26.73;93.46;94871.06;5120904;27;20428;-83
2023/06/22 08:09:14;;;;;;;15.93;5.55;;;;;;;27.12;99.15;94873.59;5139149;27;20043;-84
2023/06/22 08:11:39;;;;;;;11.68;5.45;;;;;;;27.18;91.18;94885.59;5120752;27;20119;-84
2023/06/22 08:14:05;;;;;;;12.88;5.53;;;;;;;27.50;98.48;94885.25;5121255;27;20027;-84
2023/06/22 08:16:30;;;;;;;17.38;6.07;;;;;;;27.14;100.00;94887.47;5121058;27;20031;-84
2023/06/22 08:18:56;;;;;;;13.73;5.22;;;;;;;27.19;100.00;94881.00;5139094;27;20034;-84
2023/06/22 08:21:21;;;;;;;13.93;6.30;;;;;;;27.43;100.00;94887.88;5137562;27;20031;-84
2023/06/22 08:23:48;;;;;;;10.95;5.28;;;;;;;27.61;100.00;94873.91;5137543;27;20023;-84
2023/06/22 08:26:35;;;;;;;15.88;5.70;;;;;;;27.43;100.00;94879.81;5137759;27;20078;-84
2023/06/22 08:29:19;;;;;;;14.05;5.78;;;;;;;27.28;100.00;94873.44;5138699;27;20019;-84
2023/06/22 08:31:45;;;;;;;12.15;5.25;;;;;;;27.40;100.00;94885.13;5137556;27;20079;-84
2023/06/22 08:34:10;;;;;;;13.48;5.40;;;;;;;27.66;100.00;94870.88;5120291;27;20034;-84
2023/06/22 08:39:20;;;;;;;13.00;5.03;;;;;;;28.19;100.00;94877.28;5122938;27;20242;-84
2023/06/22 08:41:46;;;;;;;15.52;5.10;;;;;;;27.99;100.00;94877.44;5120067;27;20475;-83
2023/06/22 08:47:15;;;;;;;16.48;4.70;;;;;;;28.22;97.67;94863.06;5138514;27;20084;-84
2023/06/22 08:49:41;;;;;;;9.88;5.13;;;;;;;28.54;100.00;94865.28;5120566;27;20382;-83
2023/06/22 08:52:07;;;;;;;20.77;5.03;;;;;;;28.61;98.72;94864.59;5137174;27;20038;-84
2023/06/22 08:54:34;;;;;;;10.57;4.43;;;;;;;28.72;94.85;94857.38;5120056;27;20061;-84
2023/06/22 08:57:00;;;;;;;9.85;4.50;;;;;;;28.74;88.66;94865.09;5120105;27;20088;-84
2023/06/22 08:59:26;;;;;;;11.32;4.90;;;;;;;28.85;89.96;94859.81;5136975;27;20031;-84
2023/06/22 09:01:51;;;;;;;9.32;4.65;;;;;;;28.93;92.86;94856.78;5138434;27;20041;-84
2023/06/22 09:04:16;;;;;;;15.02;5.25;;;;;;;28.79;86.36;94853.97;5136961;27;20087;-83
2023/06/22 09:07:01;;;;;;;15.45;5.45;;;;;;;28.86;98.15;94847.88;5120017;27;20400;-84
2023/06/22 09:09:45;;;;;;;10.10;4.53;;;;;;;29.05;96.28;94846.84;5120111;27;20083;-84
2023/06/22 09:12:30;;;;;;;14.55;5.45;;;;;;;29.16;92.82;94849.63;5136443;27;20551;-88
2023/06/22 09:14:56;;;;;;;12.60;4.60;;;;;;;29.25;90.38;94849.28;5139187;27;20386;-85
2023/06/22 09:20:07;;;;;;;18.15;5.15;;;;;;;29.03;88.08;94844.53;5130334;27;20420;-85
2023/06/22 09:22:51;;;;;;;15.48;4.25;;;;;;;29.15;87.47;94835.38;5119682;28;20023;-84
2023/06/22 09:28:20;;;;;;;10.38;4.20;;;;;;;29.52;77.92;94835.56;5137916;27;20034;-84
2023/06/22 09:30:45;;;;;;;16.10;4.60;;;;;;;29.33;79.33;94837.38;5102669;28;20038;-84
2023/06/22 09:33:11;;;;;;;15.30;4.50;;;;;;;29.34;81.52;94833.53;5119499;28;20348;-84
2023/06/22 09:35:36;;;;;;;12.63;4.10;;;;;;;29.60;82.64;94832.53;5117544;28;20035;-84
2023/06/22 09:38:02;;;;;;;11.55;3.85;;;;;;;29.03;74.67;94831.03;5102229;28;20117;-84
2023/06/22 09:40:27;;;;;;;15.15;4.22;;;;;;;29.11;73.65;94829.16;5102596;28;20436;-85
2023/06/22 09:42:53;;;;;;;10.02;3.90;;;;;;;29.53;75.52;94824.41;5119302;28;20447;-84
2023/06/22 09:45:18;;;;;;;18.40;4.07;;;;;;;29.24;85.46;94828.84;5137557;28;20447;-84
2023/06/22 09:47:43;;;;;;;15.98;4.22;;;;;;;29.32;84.57;94827.75;5102525;28;20027;-84
2023/06/22 09:50:28;;;;;;;22.95;4.63;;;;;;;29.45;97.24;94829.00;5119277;28;20034;-84
2023/06/22 09:52:54;;;;;;;19.45;4.68;;;;;;;29.61;95.95;94827.91;5129184;27;20075;-83
2023/06/22 09:55:22;;;;;;;18.98;4.80;;;;;;;29.58;100.00;94825.97;5158173;27;20022;-84
2023/06/22 09:57:48;;;;;;;11.98;4.88;;;;;;;29.11;92.82;94823.75;5122751;27;20027;-84
2023/06/22 10:00:32;;;;;;;12.40;4.55;;;;;;;28.96;96.26;94830.22;5139770;27;20034;-83
2023/06/22 10:02:58;;;;;;;13.85;5.18;;;;;;;28.87;91.42;94828.63;5139745;27;20027;-84
2023/06/22 10:05:24;;;;;;;13.57;4.95;;;;;;;29.13;92.15;94832.28;5157869;27;20340;-84
2023/06/22 10:07:50;;;;;;;12.23;5.07;;;;;;;29.26;90.31;94834.63;5122874;27;20058;-84
2023/06/22 10:10:15;;;;;;;15.88;5.70;;;;;;;29.01;96.03;94840.69;5139727;27;20038;-84
2023/06/22 10:15:49;;;;;;;11.02;5.15;;;;;;;29.26;96.36;94848.13;5157950;27;20485;-84
2023/06/22 10:18:16;;;;;;;12.65;5.22;;;;;;;29.56;99.14;94845.25;5123299;27;20061;-84
2023/06/22 10:20:41;;;;;;;16.15;5.72;;;;;;;29.24;100.00;94842.34;5122636;27;20038;-84
2023/06/22 10:23:07;;;;;;;15.23;5.55;;;;;;;29.39;100.00;94841.25;5122625;27;20091;-84
2023/06/22 10:25:32;;;;;;;13.20;5.35;;;;;;;29.15;100.00;94840.75;5141860;27;20030;-83
2023/06/22 10:27:57;;;;;;;12.75;6.22;;;;;;;29.39;96.94;94838.56;5143796;27;20079;-84
2023/06/22 10:30:23;;;;;;;21.55;5.97;;;;;;;29.48;100.00;94835.56;5126430;27;20073;-84
2023/06/22 10:32:49;;;;;;;17.48;5.90;;;;;;;29.42;100.00;94837.84;5143336;27;20105;-84
2023/06/22 10:35:15;;;;;;;17.80;6.72;;;;;;;28.64;95.11;94843.06;5125877;27;20050;-84
2023/06/22 10:40:27;;;;;;;15.70;5.80;;;;;;;28.56;100.00;94843.38;5145997;27;20096;-84
2023/06/22 10:42:52;;;;;;;20.25;6.15;;;;;;;28.90;100.00;94837.88;5143137;27;20101;-84
2023/06/22 10:45:18;;;;;;;23.92;6.07;;;;;;;28.70;100.00;94846.19;5142995;27;20117;-84
2023/06/22 10:47:43;;;;;;;19.90;6.10;;;;;;;28.82;95.68;94839.75;5142938;27;20033;-84
2023/06/22 10:50:27;;;;;;;18.15;6.20;;;;;;;29.23;91.84;94830.00;5143283;27;20035;-84
2023/06/22 10:55:38;;;;;;;14.07;6.10;;;;;;;28.91;89.27;94826.72;5145621;27;20083;-84
2023/06/22 10:58:03;;;;;;;11.50;5.30;;;;;;;29.39;90.98;94833.16;5142685;27;20022;-84
2023/06/22 11:00:29;;;;;;;20.25;6.07;;;;;;;29.16;91.45;94828.81;5161244;27;20031;-84
2023/06/22 11:02:54;;;;;;;15.40;6.13;;;;;;;29.06;88.72;94826.81;5142677;27;20109;-83
2023/06/22 11:05:38;;;;;;;14.52;5.90;;;;;;;29.06;91.66;94826.81;5105025;27;20095;-84
2023/06/22 11:08:04;;;;;;;13.48;6.10;;;;;;;28.95;90.62;94824.06;5122201;27;20088;-84
2023/06/22 11:10:48;;;;;;;15.85;5.97;;;;;;;29.42;98.62;94821.66;5140221;27;20031;-84
2023/06/22 11:13:14;;;;;;;15.98;6.10;;;;;;;29.39;95.25;94811.56;5140236;27;20031;-84
2023/06/22 11:15:39;;;;;;;13.15;5.55;;;;;;;29.68;93.05;94809.03;5121659;27;20030;-84
2023/06/22 11:20:49;;;;;;;14.02;6.70;;;;;;;29.82;92.99;94802.91;5124693;27;20478;-84
2023/06/22 11:23:14;;;;;;;11.65;6.25;;;;;;;29.88;96.43;94793.28;5140792;27;20030;-84
2023/06/22 11:31:08;;;;;;;13.27;5.78;;;;;;;30.07;90.60;94780.63;5145067;27;20077;-84
2023/06/22 11:33:35;;;;;;;17.55;6.43;;;;;;;30.26;97.17;94784.88;5142138;27;20097;-84
2023/06/22 11:36:00;;;;;;;15.43;6.88;;;;;;;29.86;99.82;94781.31;5141612;27;20026;-84
2023/06/22 11:38:26;;;;;;;21.77;6.57;;;;;;;30.38;90.84;94780.25;5142067;27;20022;-84
2023/06/22 11:40:51;;;;;;;17.05;6.50;;;;;;;30.48;93.05;94780.25;5160858;27;20034;-84
2023/06/22 11:43:22;;;;;;;19.25;6.50;;;;;;;30.14;88.74;94769.06;5141960;27;20050;-84
2023/06/22 11:45:47;;;;;;;14.85;6.20;;;;;;;30.27;93.09;94772.94;5124831;27;20076;-84
2023/06/22 11:48:12;;;;;;;10.40;6.57;;;;;;;30.26;88.91;94765.94;5141736;27;20439;-84
2023/06/22 11:50:57;;;;;;;13.18;6.72;;;;;;;29.85;87.00;94771.69;5125022;27;20078;-84
2023/06/22 11:53:24;;;;;;;17.02;6.50;;;;;;;30.01;93.63;94772.09;5141997;27;20033;-84
2023/06/22 11:55:50;;;;;;;11.63;5.95;;;;;;;29.85;92.44;94777.09;5141659;27;20328;-84
2023/06/22 11:58:16;;;;;;;11.48;6.13;;;;;;;30.60;84.33;94775.59;5124597;27;20072;-84
2023/06/22 12:00:41;;;;;;;13.85;6.50;;;;;;;30.76;84.70;94783.34;5141936;27;20034;-84
2023/06/22 12:03:07;;;;;;;18.38;6.53;;;;;;;30.63;85.12;94779.50;5159985;27;20387;-84
2023/06/22 12:05:33;;;;;;;15.27;5.90;;;;;;;30.59;86.13;94766.75;5120434;27;20041;-84
2023/06/22 12:07:58;;;;;;;16.08;5.95;;;;;;;30.51;85.96;94764.44;5103802;27;20038;-84
2023/06/22 12:10:25;;;;;;;17.42;6.18;;;;;;;30.73;84.40;94765.22;5121006;27;20027;-84
2023/06/22 12:12:50;;;;;;;14.25;6.25;;;;;;;30.68;79.67;94760.97;5139108;27;20168;-84
2023/06/22 12:15:16;;;;;;;13.75;5.97;;;;;;;30.66;85.92;94757.88;5103757;27;20113;-84
2023/06/22 12:17:41;;;;;;;19.75;5.85;;;;;;;30.50;89.75;94769.06;5103492;27;20129;-84
2023/06/22 12:20:07;;;;;;;17.15;5.40;;;;;;;30.93;84.21;94759.38;5120607;27;20389;-84
2023/06/22 12:22:33;;;;;;;9.15;4.93;;;;;;;31.25;79.78;94759.31;5120582;27;20056;-84
2023/06/22 12:24:59;;;;;;;15.93;4.90;;;;;;;31.81;66.10;94747.88;5120478;27;20034;-84
2023/06/22 12:27:25;;;;;;;16.38;4.97;;;;;;;31.90;70.95;94743.94;5120509;27;20427;-84
2023/06/22 12:29:50;;;;;;;10.60;5.85;;;;;;;31.48;75.62;94749.16;5120390;27;20110;-84
2023/06/22 12:32:16;;;;;;;15.35;5.50;;;;;;;31.42;74.22;94743.38;5138753;27;20343;-84
2023/06/22 12:37:28;;;;;;;14.25;5.60;;;;;;;30.93;78.37;94749.34;5122862;27;20467;-84
2023/06/22 12:40:12;;;;;;;15.45;5.50;;;;;;;30.90;75.49;94741.97;5120272;27;20035;-84
2023/06/22 12:42:38;;;;;;;22.30;5.30;;;;;;;31.18;75.14;94743.06;5103334;27;20083;-84
2023/06/22 12:45:22;;;;;;;11.27;5.18;;;;;;;31.51;78.24;94742.97;5119902;27;20439;-85
2023/06/22 12:47:49;;;;;;;10.73;5.43;;;;;;;31.13;79.77;94741.56;5137830;27;20075;-85
2023/06/22 12:50:15;;;;;;;12.00;5.35;;;;;;;30.75;84.59;94741.25;5138358;27;20426;-84
2023/06/22 12:52:59;;;;;;;15.32;5.35;;;;;;;31.62;73.59;94730.13;5120065;27;20113;-84
2023/06/22 12:55:25;;;;;;;16.42;4.78;;;;;;;32.14;66.19;94728.69;5156298;27;20018;-85
2023/06/22 13:00:35;;;;;;;16.45;4.57;;;;;;;32.01;59.78;94722.97;5159008;27;20038;-84
2023/06/22 13:03:19;;;;;;;10.75;3.97;;;;;;;32.76;59.50;94725.44;5140509;27;20032;-85
2023/06/22 13:05:44;;;;;;;18.92;4.82;;;;;;;32.33;58.75;94718.47;5140260;27;20054;-84
2023/06/22 13:08:10;;;;;;;12.60;4.25;;;;;;;32.69;58.06;94710.78;5140286;27;20046;-85
2023/06/22 13:10:36;;;;;;;24.02;3.92;;;;;;;32.67;57.54;94720.50;5140423;27;20037;-85
2023/06/22 13:13:26;;;;;;;10.23;4.03;;;;;;;32.94;56.10;94717.16;5140471;27;20427;-85
2023/06/22 13:15:55;;;;;;;12.10;4.55;;;;;;;32.83;54.25;94719.97;5140330;27;20034;-84
2023/06/22 13:18:21;;;;;;;10.68;4.05;;;;;;;32.93;55.28;94712.91;5123060;27;20026;-85
2023/06/22 13:20:46;;;;;;;10.68;3.95;;;;;;;32.99;56.56;94706.63;5115636;27;20153;-85
2023/06/22 13:23:30;;;;;;;11.82;3.92;;;;;;;32.24;59.97;94710.78;5102788;27;20027;-85
2023/06/22 13:28:41;;;;;;;15.15;4.13;;;;;;;31.74;58.96;94708.03;5122394;28;20050;-84